MUVR/VRA METAR and TAF weather

Enter ICAO airport designator
Station Type Date Time Source
MUVR METAR 2022/05/23 14:50 UTC NOAA

MUVR 231450Z 11007KT 080V150 9000 FEW020 BKN150 27/24 Q1018


Station Type Date Time Source
MUVR Decoded METAR 2022/05/23 14:50 UTC NOAA

Varadero, Matanzas, Cuba (MUVR) 23-08N 081-17W 3M
May 23, 2022 - 10:50 AM EDT / 2022.05.23 1450 UTC
Wind: from the ESE (110 degrees) at 8 MPH (7 KT) (direction variable):0
Visibility: 5 mile(s):0
Sky conditions: mostly cloudy
Temperature: 80 F (27 C)
Dew Point: 75 F (24 C)
Relative Humidity: 83%
Pressure (altimeter): 30.06 in. Hg (1018 hPa)
ob: MUVR 231450Z 11007KT 080V150 9000 FEW020 BKN150 27/24 Q1018
cycle: 15

Station Type Date Time Source
MUVR TAF 2022/05/23 12:03 UTC NOAA

TAF MUVR 231100Z 2312/2412 VRB03KT 9000 SCT020
BECMG 2315/2317 07014KT
TEMPO 2318/2324 VRB10KT 5000 TSRA SCT018CB BKN020
BECMG 2403/2405 VRB03KT

Example: see airport list